Terminal Aerodrome Forecast
Issued by NWS

Current Version | Previous Version | Text Only | Print | Product List | Glossary On
Versions: 1 2 3 4 5 6 7 8 9 10 11 12
000
FTUS44 KHGX 240520
TAFCXO
TAF
KCXO 240520Z 2406/2506 VRB03KT P6SM SCT250
     FM241600 23003KT P6SM SCT035
     FM241900 16007KT P6SM SCT050 SCT250
     FM250100 14005KT P6SM SCT250=

USA.gov is the U.S. government's official web portal to all federal, state and local government web resources and services.